sensor_id;sensor_type;location;lat;lon;timestamp;P1;durP1;ratioP1;P2;durP2;ratioP2
26540;SDS011;14206;50.202;10.948;2023-03-12T00:02:20;2.63;;;1.73;;
26540;SDS011;14206;50.202;10.948;2023-03-12T00:04:47;1.70;;;1.42;;
26540;SDS011;14206;50.202;10.948;2023-03-12T00:10:04;1.67;;;1.20;;
26540;SDS011;14206;50.202;10.948;2023-03-12T00:12:31;1.65;;;1.40;;
26540;SDS011;14206;50.202;10.948;2023-03-12T00:14:59;1.75;;;1.42;;
26540;SDS011;14206;50.202;10.948;2023-03-12T00:17:27;2.38;;;1.42;;
26540;SDS011;14206;50.202;10.948;2023-03-12T00:19:55;1.35;;;1.25;;
26540;SDS011;14206;50.202;10.948;2023-03-12T00:22:22;2.75;;;1.60;;
26540;SDS011;14206;50.202;10.948;2023-03-12T00:24:51;2.13;;;1.70;;
26540;SDS011;14206;50.202;10.948;2023-03-12T00:27:19;2.33;;;1.52;;
26540;SDS011;14206;50.202;10.948;2023-03-12T00:29:46;2.20;;;1.70;;
26540;SDS011;14206;50.202;10.948;2023-03-12T00:32:13;2.42;;;1.75;;
26540;SDS011;14206;50.202;10.948;2023-03-12T00:34:40;3.13;;;2.08;;
26540;SDS011;14206;50.202;10.948;2023-03-12T00:37:07;2.60;;;1.80;;
26540;SDS011;14206;50.202;10.948;2023-03-12T00:39:34;2.55;;;1.83;;
26540;SDS011;14206;50.202;10.948;2023-03-12T00:42:01;2.92;;;1.83;;
26540;SDS011;14206;50.202;10.948;2023-03-12T00:44:28;2.60;;;1.83;;
26540;SDS011;14206;50.202;10.948;2023-03-12T00:46:54;3.53;;;2.15;;
26540;SDS011;14206;50.202;10.948;2023-03-12T00:49:21;3.08;;;2.10;;
26540;SDS011;14206;50.202;10.948;2023-03-12T00:51:48;4.00;;;2.30;;
26540;SDS011;14206;50.202;10.948;2023-03-12T00:54:15;2.42;;;1.85;;
26540;SDS011;14206;50.202;10.948;2023-03-12T00:56:42;3.10;;;2.10;;
26540;SDS011;14206;50.202;10.948;2023-03-12T00:59:10;2.70;;;1.98;;
26540;SDS011;14206;50.202;10.948;2023-03-12T01:01:37;2.08;;;1.85;;
26540;SDS011;14206;50.202;10.948;2023-03-12T01:04:04;3.28;;;2.20;;
26540;SDS011;14206;50.202;10.948;2023-03-12T01:06:32;3.78;;;2.20;;
26540;SDS011;14206;50.202;10.948;2023-03-12T01:09:00;2.97;;;1.92;;
26540;SDS011;14206;50.202;10.948;2023-03-12T01:11:28;3.58;;;2.10;;
26540;SDS011;14206;50.202;10.948;2023-03-12T01:13:56;2.83;;;2.25;;
26540;SDS011;14206;50.202;10.948;2023-03-12T01:16:22;3.30;;;2.00;;
26540;SDS011;14206;50.202;10.948;2023-03-12T01:18:53;2.92;;;1.90;;
26540;SDS011;14206;50.202;10.948;2023-03-12T01:21:21;2.70;;;2.03;;
26540;SDS011;14206;50.202;10.948;2023-03-12T01:23:49;2.92;;;2.08;;
26540;SDS011;14206;50.202;10.948;2023-03-12T01:26:16;2.95;;;2.10;;
26540;SDS011;14206;50.202;10.948;2023-03-12T01:28:43;3.13;;;2.25;;
26540;SDS011;14206;50.202;10.948;2023-03-12T01:31:12;3.63;;;2.47;;
26540;SDS011;14206;50.202;10.948;2023-03-12T01:33:40;3.28;;;2.20;;
26540;SDS011;14206;50.202;10.948;2023-03-12T01:36:14;3.05;;;2.10;;
26540;SDS011;14206;50.202;10.948;2023-03-12T01:38:43;2.47;;;2.00;;
26540;SDS011;14206;50.202;10.948;2023-03-12T01:41:10;2.75;;;2.08;;
26540;SDS011;14206;50.202;10.948;2023-03-12T01:43:37;3.13;;;2.33;;
26540;SDS011;14206;50.202;10.948;2023-03-12T01:49:06;3.75;;;2.50;;
26540;SDS011;14206;50.202;10.948;2023-03-12T01:54:28;3.65;;;2.60;;
26540;SDS011;14206;50.202;10.948;2023-03-12T01:57:02;4.22;;;2.55;;
26540;SDS011;14206;50.202;10.948;2023-03-12T01:59:58;3.08;;;2.38;;
26540;SDS011;14206;50.202;10.948;2023-03-12T02:02:38;4.47;;;2.78;;
26540;SDS011;14206;50.202;10.948;2023-03-12T02:05:10;3.33;;;2.53;;
26540;SDS011;14206;50.202;10.948;2023-03-12T02:07:42;3.47;;;2.72;;
26540;SDS011;14206;50.202;10.948;2023-03-12T02:10:10;2.80;;;2.10;;
26540;SDS011;14206;50.202;10.948;2023-03-12T02:12:37;4.22;;;2.67;;
26540;SDS011;14206;50.202;10.948;2023-03-12T02:15:04;4.47;;;2.92;;
26540;SDS011;14206;50.202;10.948;2023-03-12T02:17:32;3.70;;;2.85;;
26540;SDS011;14206;50.202;10.948;2023-03-12T02:20:17;4.45;;;2.70;;
26540;SDS011;14206;50.202;10.948;2023-03-12T02:23:09;4.20;;;2.72;;
26540;SDS011;14206;50.202;10.948;2023-03-12T02:25:43;3.55;;;2.83;;
26540;SDS011;14206;50.202;10.948;2023-03-12T02:28:13;3.70;;;2.60;;
26540;SDS011;14206;50.202;10.948;2023-03-12T02:30:43;3.45;;;2.65;;
26540;SDS011;14206;50.202;10.948;2023-03-12T02:33:14;3.80;;;2.45;;
26540;SDS011;14206;50.202;10.948;2023-03-12T02:35:42;3.70;;;2.60;;
26540;SDS011;14206;50.202;10.948;2023-03-12T02:41:07;3.65;;;3.03;;
26540;SDS011;14206;50.202;10.948;2023-03-12T02:46:31;4.00;;;3.15;;
26540;SDS011;14206;50.202;10.948;2023-03-12T02:49:02;4.65;;;3.38;;
26540;SDS011;14206;50.202;10.948;2023-03-12T02:51:29;4.95;;;3.38;;
26540;SDS011;14206;50.202;10.948;2023-03-12T02:53:56;4.07;;;3.13;;
26540;SDS011;14206;50.202;10.948;2023-03-12T02:56:23;4.35;;;3.33;;
26540;SDS011;14206;50.202;10.948;2023-03-12T02:58:52;5.82;;;3.17;;
26540;SDS011;14206;50.202;10.948;2023-03-12T03:01:21;4.93;;;3.50;;
26540;SDS011;14206;50.202;10.948;2023-03-12T03:03:48;5.47;;;4.10;;
26540;SDS011;14206;50.202;10.948;2023-03-12T03:06:16;5.75;;;3.67;;
26540;SDS011;14206;50.202;10.948;2023-03-12T03:08:44;5.72;;;3.97;;
26540;SDS011;14206;50.202;10.948;2023-03-12T03:11:11;5.63;;;4.03;;
26540;SDS011;14206;50.202;10.948;2023-03-12T03:13:38;5.55;;;3.70;;
26540;SDS011;14206;50.202;10.948;2023-03-12T03:16:05;5.03;;;3.70;;
26540;SDS011;14206;50.202;10.948;2023-03-12T03:18:33;5.40;;;4.05;;
26540;SDS011;14206;50.202;10.948;2023-03-12T03:21:01;4.93;;;3.47;;
26540;SDS011;14206;50.202;10.948;2023-03-12T03:23:32;4.88;;;3.53;;
26540;SDS011;14206;50.202;10.948;2023-03-12T03:26:00;6.30;;;3.85;;
26540;SDS011;14206;50.202;10.948;2023-03-12T03:28:27;5.53;;;3.90;;
26540;SDS011;14206;50.202;10.948;2023-03-12T03:30:56;6.13;;;4.05;;
26540;SDS011;14206;50.202;10.948;2023-03-12T03:33:28;5.32;;;3.92;;
26540;SDS011;14206;50.202;10.948;2023-03-12T03:35:56;6.53;;;4.20;;
26540;SDS011;14206;50.202;10.948;2023-03-12T03:38:26;6.55;;;4.25;;
26540;SDS011;14206;50.202;10.948;2023-03-12T03:40:54;6.55;;;4.07;;
26540;SDS011;14206;50.202;10.948;2023-03-12T03:43:22;6.55;;;4.10;;
26540;SDS011;14206;50.202;10.948;2023-03-12T03:45:59;6.88;;;4.63;;
26540;SDS011;14206;50.202;10.948;2023-03-12T03:48:30;5.35;;;3.90;;
26540;SDS011;14206;50.202;10.948;2023-03-12T03:51:01;5.47;;;4.00;;
26540;SDS011;14206;50.202;10.948;2023-03-12T03:56:09;4.75;;;3.33;;
26540;SDS011;14206;50.202;10.948;2023-03-12T03:58:42;5.15;;;3.45;;
26540;SDS011;14206;50.202;10.948;2023-03-12T04:01:11;4.32;;;3.15;;
26540;SDS011;14206;50.202;10.948;2023-03-12T04:03:39;4.70;;;3.30;;
26540;SDS011;14206;50.202;10.948;2023-03-12T04:06:07;4.90;;;3.10;;
26540;SDS011;14206;50.202;10.948;2023-03-12T04:08:35;5.03;;;3.42;;
26540;SDS011;14206;50.202;10.948;2023-03-12T04:11:12;5.15;;;2.97;;
26540;SDS011;14206;50.202;10.948;2023-03-12T04:13:41;5.03;;;3.08;;
26540;SDS011;14206;50.202;10.948;2023-03-12T04:16:10;4.72;;;3.35;;
26540;SDS011;14206;50.202;10.948;2023-03-12T04:18:38;4.68;;;3.22;;
26540;SDS011;14206;50.202;10.948;2023-03-12T04:21:08;4.72;;;3.42;;
26540;SDS011;14206;50.202;10.948;2023-03-12T04:23:37;6.28;;;3.53;;
26540;SDS011;14206;50.202;10.948;2023-03-12T04:26:06;5.65;;;3.15;;
26540;SDS011;14206;50.202;10.948;2023-03-12T04:28:34;4.47;;;3.17;;
26540;SDS011;14206;50.202;10.948;2023-03-12T04:31:04;5.65;;;3.35;;
26540;SDS011;14206;50.202;10.948;2023-03-12T04:33:43;3.97;;;3.08;;
26540;SDS011;14206;50.202;10.948;2023-03-12T04:36:11;4.10;;;2.92;;
26540;SDS011;14206;50.202;10.948;2023-03-12T04:38:41;4.43;;;3.13;;
26540;SDS011;14206;50.202;10.948;2023-03-12T04:41:10;4.80;;;3.45;;
26540;SDS011;14206;50.202;10.948;2023-03-12T04:43:45;3.75;;;2.83;;
26540;SDS011;14206;50.202;10.948;2023-03-12T04:46:13;4.68;;;3.25;;
26540;SDS011;14206;50.202;10.948;2023-03-12T04:48:43;4.30;;;3.00;;
26540;SDS011;14206;50.202;10.948;2023-03-12T04:51:11;4.55;;;3.20;;
26540;SDS011;14206;50.202;10.948;2023-03-12T04:53:38;3.83;;;2.85;;
26540;SDS011;14206;50.202;10.948;2023-03-12T04:56:07;4.22;;;2.65;;
26540;SDS011;14206;50.202;10.948;2023-03-12T04:58:39;4.65;;;3.22;;
26540;SDS011;14206;50.202;10.948;2023-03-12T05:01:06;5.18;;;3.53;;
26540;SDS011;14206;50.202;10.948;2023-03-12T05:03:33;4.90;;;3.20;;
26540;SDS011;14206;50.202;10.948;2023-03-12T05:06:00;4.45;;;3.15;;
26540;SDS011;14206;50.202;10.948;2023-03-12T05:08:27;5.38;;;3.35;;
26540;SDS011;14206;50.202;10.948;2023-03-12T05:10:55;7.28;;;3.60;;
26540;SDS011;14206;50.202;10.948;2023-03-12T05:13:22;4.63;;;3.15;;
26540;SDS011;14206;50.202;10.948;2023-03-12T05:15:53;4.50;;;3.22;;
26540;SDS011;14206;50.202;10.948;2023-03-12T05:18:20;4.10;;;3.15;;
26540;SDS011;14206;50.202;10.948;2023-03-12T05:20:58;4.38;;;3.05;;
26540;SDS011;14206;50.202;10.948;2023-03-12T05:23:32;4.05;;;2.90;;
26540;SDS011;14206;50.202;10.948;2023-03-12T05:26:00;4.57;;;3.20;;
26540;SDS011;14206;50.202;10.948;2023-03-12T05:28:27;4.78;;;3.08;;
26540;SDS011;14206;50.202;10.948;2023-03-12T05:30:58;4.53;;;2.88;;
26540;SDS011;14206;50.202;10.948;2023-03-12T05:33:26;3.35;;;3.00;;
26540;SDS011;14206;50.202;10.948;2023-03-12T05:35:54;4.03;;;2.80;;
26540;SDS011;14206;50.202;10.948;2023-03-12T05:38:21;4.18;;;2.60;;
26540;SDS011;14206;50.202;10.948;2023-03-12T05:40:50;3.58;;;2.53;;
26540;SDS011;14206;50.202;10.948;2023-03-12T05:43:19;4.10;;;2.88;;
26540;SDS011;14206;50.202;10.948;2023-03-12T05:45:46;4.75;;;2.97;;
26540;SDS011;14206;50.202;10.948;2023-03-12T05:48:14;4.70;;;3.33;;
26540;SDS011;14206;50.202;10.948;2023-03-12T05:50:41;4.25;;;3.00;;
26540;SDS011;14206;50.202;10.948;2023-03-12T05:53:08;4.30;;;2.80;;
26540;SDS011;14206;50.202;10.948;2023-03-12T05:55:36;3.85;;;2.70;;
26540;SDS011;14206;50.202;10.948;2023-03-12T05:58:05;3.63;;;2.70;;
26540;SDS011;14206;50.202;10.948;2023-03-12T06:00:33;4.90;;;3.17;;
26540;SDS011;14206;50.202;10.948;2023-03-12T06:03:05;4.55;;;2.78;;
26540;SDS011;14206;50.202;10.948;2023-03-12T06:05:34;4.93;;;3.00;;
26540;SDS011;14206;50.202;10.948;2023-03-12T06:08:02;4.20;;;3.05;;
26540;SDS011;14206;50.202;10.948;2023-03-12T06:10:29;6.88;;;3.35;;
26540;SDS011;14206;50.202;10.948;2023-03-12T06:12:56;3.70;;;3.03;;
26540;SDS011;14206;50.202;10.948;2023-03-12T06:15:23;5.70;;;3.42;;
26540;SDS011;14206;50.202;10.948;2023-03-12T06:17:50;4.63;;;3.47;;
26540;SDS011;14206;50.202;10.948;2023-03-12T06:20:17;6.35;;;3.80;;
26540;SDS011;14206;50.202;10.948;2023-03-12T06:22:43;7.15;;;3.63;;
26540;SDS011;14206;50.202;10.948;2023-03-12T06:25:10;4.72;;;3.63;;
26540;SDS011;14206;50.202;10.948;2023-03-12T06:27:39;7.88;;;3.78;;
26540;SDS011;14206;50.202;10.948;2023-03-12T06:30:06;5.85;;;3.75;;
26540;SDS011;14206;50.202;10.948;2023-03-12T06:32:34;6.82;;;4.00;;
26540;SDS011;14206;50.202;10.948;2023-03-12T06:35:01;5.55;;;3.70;;
26540;SDS011;14206;50.202;10.948;2023-03-12T06:37:29;5.25;;;3.53;;
26540;SDS011;14206;50.202;10.948;2023-03-12T06:39:56;5.60;;;4.05;;
26540;SDS011;14206;50.202;10.948;2023-03-12T06:42:23;5.25;;;4.07;;
26540;SDS011;14206;50.202;10.948;2023-03-12T06:44:51;6.75;;;4.47;;
26540;SDS011;14206;50.202;10.948;2023-03-12T06:47:19;6.55;;;4.20;;
26540;SDS011;14206;50.202;10.948;2023-03-12T06:49:45;6.32;;;3.92;;
26540;SDS011;14206;50.202;10.948;2023-03-12T06:52:12;5.93;;;3.78;;
26540;SDS011;14206;50.202;10.948;2023-03-12T06:54:39;5.22;;;3.45;;
26540;SDS011;14206;50.202;10.948;2023-03-12T06:57:06;5.40;;;3.53;;
26540;SDS011;14206;50.202;10.948;2023-03-12T06:59:33;4.53;;;3.13;;
26540;SDS011;14206;50.202;10.948;2023-03-12T07:02:00;4.55;;;3.03;;
26540;SDS011;14206;50.202;10.948;2023-03-12T07:04:27;3.80;;;3.13;;
26540;SDS011;14206;50.202;10.948;2023-03-12T07:06:54;4.78;;;3.08;;
26540;SDS011;14206;50.202;10.948;2023-03-12T07:09:20;5.18;;;3.45;;
26540;SDS011;14206;50.202;10.948;2023-03-12T07:11:48;4.32;;;3.38;;
26540;SDS011;14206;50.202;10.948;2023-03-12T07:14:14;3.97;;;2.88;;
26540;SDS011;14206;50.202;10.948;2023-03-12T07:16:41;5.35;;;3.30;;
26540;SDS011;14206;50.202;10.948;2023-03-12T07:19:08;3.97;;;2.83;;
26540;SDS011;14206;50.202;10.948;2023-03-12T07:21:35;4.28;;;3.15;;
26540;SDS011;14206;50.202;10.948;2023-03-12T07:24:02;3.97;;;2.90;;
26540;SDS011;14206;50.202;10.948;2023-03-12T07:26:33;5.13;;;2.95;;
26540;SDS011;14206;50.202;10.948;2023-03-12T07:29:00;4.35;;;3.15;;
26540;SDS011;14206;50.202;10.948;2023-03-12T07:31:28;4.38;;;3.45;;
26540;SDS011;14206;50.202;10.948;2023-03-12T07:33:55;6.13;;;3.50;;
26540;SDS011;14206;50.202;10.948;2023-03-12T07:36:22;4.85;;;3.72;;
26540;SDS011;14206;50.202;10.948;2023-03-12T07:38:49;4.57;;;3.65;;
26540;SDS011;14206;50.202;10.948;2023-03-12T07:41:16;5.60;;;3.88;;
26540;SDS011;14206;50.202;10.948;2023-03-12T07:43:43;4.07;;;3.28;;
26540;SDS011;14206;50.202;10.948;2023-03-12T07:46:09;4.65;;;3.13;;
26540;SDS011;14206;50.202;10.948;2023-03-12T07:48:36;4.18;;;3.17;;
26540;SDS011;14206;50.202;10.948;2023-03-12T07:51:04;4.10;;;3.25;;
26540;SDS011;14206;50.202;10.948;2023-03-12T07:53:31;6.15;;;3.67;;
26540;SDS011;14206;50.202;10.948;2023-03-12T07:55:58;4.63;;;3.33;;
26540;SDS011;14206;50.202;10.948;2023-03-12T07:58:25;4.35;;;3.33;;
26540;SDS011;14206;50.202;10.948;2023-03-12T08:00:53;3.92;;;3.00;;
26540;SDS011;14206;50.202;10.948;2023-03-12T08:03:21;6.18;;;3.70;;
26540;SDS011;14206;50.202;10.948;2023-03-12T08:05:55;5.47;;;3.30;;
26540;SDS011;14206;50.202;10.948;2023-03-12T08:08:27;4.88;;;3.45;;
26540;SDS011;14206;50.202;10.948;2023-03-12T08:10:56;4.30;;;3.28;;
26540;SDS011;14206;50.202;10.948;2023-03-12T08:13:24;4.60;;;3.25;;
26540;SDS011;14206;50.202;10.948;2023-03-12T08:15:52;4.32;;;3.65;;
26540;SDS011;14206;50.202;10.948;2023-03-12T08:18:19;4.40;;;3.38;;
26540;SDS011;14206;50.202;10.948;2023-03-12T08:20:50;4.97;;;3.33;;
26540;SDS011;14206;50.202;10.948;2023-03-12T08:23:20;5.50;;;4.00;;
26540;SDS011;14206;50.202;10.948;2023-03-12T08:25:48;5.15;;;3.50;;
26540;SDS011;14206;50.202;10.948;2023-03-12T08:28:15;5.28;;;3.97;;
26540;SDS011;14206;50.202;10.948;2023-03-12T08:30:46;4.93;;;3.60;;
26540;SDS011;14206;50.202;10.948;2023-03-12T08:33:15;3.85;;;3.20;;
26540;SDS011;14206;50.202;10.948;2023-03-12T08:35:42;4.88;;;3.53;;
26540;SDS011;14206;50.202;10.948;2023-03-12T08:38:09;4.22;;;3.42;;
26540;SDS011;14206;50.202;10.948;2023-03-12T08:40:36;4.13;;;3.00;;
26540;SDS011;14206;50.202;10.948;2023-03-12T08:43:03;4.75;;;3.70;;
26540;SDS011;14206;50.202;10.948;2023-03-12T08:45:30;5.72;;;3.80;;
26540;SDS011;14206;50.202;10.948;2023-03-12T08:47:57;4.25;;;3.58;;
26540;SDS011;14206;50.202;10.948;2023-03-12T08:50:24;7.38;;;3.42;;
26540;SDS011;14206;50.202;10.948;2023-03-12T08:52:54;4.55;;;3.17;;
26540;SDS011;14206;50.202;10.948;2023-03-12T08:55:21;4.32;;;3.15;;
26540;SDS011;14206;50.202;10.948;2023-03-12T08:57:48;4.15;;;3.30;;
26540;SDS011;14206;50.202;10.948;2023-03-12T09:00:15;4.20;;;3.00;;
26540;SDS011;14206;50.202;10.948;2023-03-12T09:02:43;4.25;;;3.38;;
26540;SDS011;14206;50.202;10.948;2023-03-12T09:05:12;4.95;;;3.50;;
26540;SDS011;14206;50.202;10.948;2023-03-12T09:07:39;4.90;;;3.67;;
26540;SDS011;14206;50.202;10.948;2023-03-12T09:10:07;8.18;;;5.20;;
26540;SDS011;14206;50.202;10.948;2023-03-12T09:12:34;6.53;;;4.18;;
26540;SDS011;14206;50.202;10.948;2023-03-12T09:15:01;5.18;;;3.90;;
26540;SDS011;14206;50.202;10.948;2023-03-12T09:17:30;6.72;;;4.32;;
26540;SDS011;14206;50.202;10.948;2023-03-12T09:19:57;5.35;;;3.90;;
26540;SDS011;14206;50.202;10.948;2023-03-12T09:22:24;6.25;;;3.97;;
26540;SDS011;14206;50.202;10.948;2023-03-12T09:24:50;7.25;;;5.05;;
26540;SDS011;14206;50.202;10.948;2023-03-12T09:27:17;5.88;;;4.28;;
26540;SDS011;14206;50.202;10.948;2023-03-12T09:29:44;5.35;;;3.80;;
26540;SDS011;14206;50.202;10.948;2023-03-12T09:32:26;6.18;;;3.72;;
26540;SDS011;14206;50.202;10.948;2023-03-12T09:34:53;5.63;;;3.65;;
26540;SDS011;14206;50.202;10.948;2023-03-12T09:37:20;5.90;;;4.20;;
26540;SDS011;14206;50.202;10.948;2023-03-12T09:39:50;5.63;;;4.45;;
26540;SDS011;14206;50.202;10.948;2023-03-12T09:42:22;6.28;;;4.45;;
26540;SDS011;14206;50.202;10.948;2023-03-12T09:45:04;5.30;;;3.85;;
26540;SDS011;14206;50.202;10.948;2023-03-12T09:47:35;5.15;;;3.55;;
26540;SDS011;14206;50.202;10.948;2023-03-12T09:50:19;6.70;;;3.70;;
26540;SDS011;14206;50.202;10.948;2023-03-12T09:55:20;6.47;;;4.30;;
26540;SDS011;14206;50.202;10.948;2023-03-12T09:57:49;7.00;;;3.90;;
26540;SDS011;14206;50.202;10.948;2023-03-12T10:00:18;6.50;;;3.95;;
26540;SDS011;14206;50.202;10.948;2023-03-12T10:14:04;5.43;;;3.55;;
26540;SDS011;14206;50.202;10.948;2023-03-12T10:27:41;5.38;;;3.80;;
26540;SDS011;14206;50.202;10.948;2023-03-12T10:30:16;4.78;;;3.58;;
26540;SDS011;14206;50.202;10.948;2023-03-12T10:32:47;5.82;;;3.75;;
26540;SDS011;14206;50.202;10.948;2023-03-12T10:35:27;5.65;;;3.55;;
26540;SDS011;14206;50.202;10.948;2023-03-12T10:37:58;9.20;;;4.55;;
26540;SDS011;14206;50.202;10.948;2023-03-12T10:40:30;5.53;;;3.60;;
26540;SDS011;14206;50.202;10.948;2023-03-12T10:42:59;6.35;;;3.58;;
26540;SDS011;14206;50.202;10.948;2023-03-12T10:45:30;3.90;;;3.20;;
26540;SDS011;14206;50.202;10.948;2023-03-12T10:48:22;4.63;;;3.22;;
26540;SDS011;14206;50.202;10.948;2023-03-12T10:51:01;5.68;;;3.50;;
26540;SDS011;14206;50.202;10.948;2023-03-12T10:53:31;5.70;;;3.85;;
26540;SDS011;14206;50.202;10.948;2023-03-12T10:58:40;8.97;;;4.43;;
26540;SDS011;14206;50.202;10.948;2023-03-12T11:04:08;7.53;;;4.65;;
26540;SDS011;14206;50.202;10.948;2023-03-12T11:07:06;6.70;;;4.50;;
26540;SDS011;14206;50.202;10.948;2023-03-12T11:09:43;7.25;;;4.40;;
26540;SDS011;14206;50.202;10.948;2023-03-12T11:12:27;6.03;;;4.13;;
26540;SDS011;14206;50.202;10.948;2023-03-12T11:14:56;4.88;;;4.00;;
26540;SDS011;14206;50.202;10.948;2023-03-12T11:17:25;6.90;;;4.28;;
26540;SDS011;14206;50.202;10.948;2023-03-12T11:19:53;6.10;;;4.28;;
26540;SDS011;14206;50.202;10.948;2023-03-12T11:22:31;6.97;;;4.30;;
26540;SDS011;14206;50.202;10.948;2023-03-12T11:25:00;7.07;;;4.57;;
26540;SDS011;14206;50.202;10.948;2023-03-12T11:30:13;5.80;;;4.03;;
26540;SDS011;14206;50.202;10.948;2023-03-12T11:32:45;5.72;;;4.30;;
26540;SDS011;14206;50.202;10.948;2023-03-12T11:35:15;5.97;;;4.05;;
26540;SDS011;14206;50.202;10.948;2023-03-12T11:48:05;8.95;;;4.82;;
26540;SDS011;14206;50.202;10.948;2023-03-12T11:50:51;8.40;;;4.55;;
26540;SDS011;14206;50.202;10.948;2023-03-12T11:53:26;8.25;;;4.78;;
26540;SDS011;14206;50.202;10.948;2023-03-12T11:56:26;5.32;;;4.40;;
26540;SDS011;14206;50.202;10.948;2023-03-12T12:01:29;6.97;;;4.70;;
26540;SDS011;14206;50.202;10.948;2023-03-12T12:07:22;5.75;;;4.30;;
26540;SDS011;14206;50.202;10.948;2023-03-12T12:15:13;6.20;;;4.28;;
26540;SDS011;14206;50.202;10.948;2023-03-12T12:25:52;6.00;;;4.65;;
26540;SDS011;14206;50.202;10.948;2023-03-12T12:31:29;7.97;;;4.80;;
26540;SDS011;14206;50.202;10.948;2023-03-12T12:34:24;6.47;;;4.65;;
26540;SDS011;14206;50.202;10.948;2023-03-12T12:36:53;7.80;;;4.50;;
26540;SDS011;14206;50.202;10.948;2023-03-12T12:39:34;5.70;;;3.65;;
26540;SDS011;14206;50.202;10.948;2023-03-12T12:42:05;5.95;;;4.18;;
26540;SDS011;14206;50.202;10.948;2023-03-12T12:44:42;6.07;;;4.60;;
26540;SDS011;14206;50.202;10.948;2023-03-12T12:47:16;7.00;;;4.38;;
26540;SDS011;14206;50.202;10.948;2023-03-12T12:49:46;7.07;;;4.45;;
26540;SDS011;14206;50.202;10.948;2023-03-12T12:52:19;9.18;;;4.10;;
26540;SDS011;14206;50.202;10.948;2023-03-12T12:54:53;5.97;;;4.18;;
26540;SDS011;14206;50.202;10.948;2023-03-12T12:57:53;4.63;;;4.03;;
26540;SDS011;14206;50.202;10.948;2023-03-12T13:01:08;7.65;;;4.90;;
26540;SDS011;14206;50.202;10.948;2023-03-12T13:03:19;5.88;;;3.97;;
26540;SDS011;14206;50.202;10.948;2023-03-12T13:13:50;6.45;;;4.20;;
26540;SDS011;14206;50.202;10.948;2023-03-12T13:16:38;5.80;;;4.35;;
26540;SDS011;14206;50.202;10.948;2023-03-12T13:24:27;6.05;;;4.15;;
26540;SDS011;14206;50.202;10.948;2023-03-12T13:27:16;6.90;;;4.55;;
26540;SDS011;14206;50.202;10.948;2023-03-12T13:29:56;6.65;;;5.05;;
26540;SDS011;14206;50.202;10.948;2023-03-12T13:45:30;7.05;;;5.13;;
26540;SDS011;14206;50.202;10.948;2023-03-12T13:47:58;6.47;;;4.80;;
26540;SDS011;14206;50.202;10.948;2023-03-12T13:50:40;5.85;;;4.40;;
26540;SDS011;14206;50.202;10.948;2023-03-12T13:53:21;5.63;;;4.68;;
26540;SDS011;14206;50.202;10.948;2023-03-12T13:56:07;5.78;;;4.70;;
26540;SDS011;14206;50.202;10.948;2023-03-12T13:58:40;6.97;;;5.07;;
26540;SDS011;14206;50.202;10.948;2023-03-12T14:01:17;5.88;;;4.47;;
26540;SDS011;14206;50.202;10.948;2023-03-12T14:03:47;8.73;;;5.18;;
26540;SDS011;14206;50.202;10.948;2023-03-12T14:06:18;6.60;;;4.90;;
26540;SDS011;14206;50.202;10.948;2023-03-12T14:09:04;7.68;;;5.40;;
26540;SDS011;14206;50.202;10.948;2023-03-12T14:14:58;8.05;;;5.43;;
26540;SDS011;14206;50.202;10.948;2023-03-12T14:17:31;8.65;;;4.85;;
26540;SDS011;14206;50.202;10.948;2023-03-12T14:22:44;6.75;;;5.13;;
26540;SDS011;14206;50.202;10.948;2023-03-12T14:27:59;6.53;;;4.93;;
26540;SDS011;14206;50.202;10.948;2023-03-12T14:30:35;6.45;;;4.82;;
26540;SDS011;14206;50.202;10.948;2023-03-12T14:33:23;6.93;;;5.07;;
26540;SDS011;14206;50.202;10.948;2023-03-12T14:35:54;6.38;;;4.95;;
26540;SDS011;14206;50.202;10.948;2023-03-12T14:38:31;6.63;;;5.15;;
26540;SDS011;14206;50.202;10.948;2023-03-12T14:41:03;6.60;;;5.10;;
26540;SDS011;14206;50.202;10.948;2023-03-12T14:43:38;6.60;;;5.30;;
26540;SDS011;14206;50.202;10.948;2023-03-12T14:46:14;6.65;;;5.07;;
26540;SDS011;14206;50.202;10.948;2023-03-12T14:48:46;6.03;;;5.10;;
26540;SDS011;14206;50.202;10.948;2023-03-12T14:51:24;7.32;;;5.07;;
26540;SDS011;14206;50.202;10.948;2023-03-12T14:53:54;6.07;;;4.72;;
26540;SDS011;14206;50.202;10.948;2023-03-12T14:56:25;8.02;;;4.93;;
26540;SDS011;14206;50.202;10.948;2023-03-12T14:58:58;5.43;;;4.70;;
26540;SDS011;14206;50.202;10.948;2023-03-12T15:01:31;4.47;;;4.07;;
26540;SDS011;14206;50.202;10.948;2023-03-12T15:04:06;5.63;;;4.70;;
26540;SDS011;14206;50.202;10.948;2023-03-12T15:06:56;5.38;;;4.75;;
26540;SDS011;14206;50.202;10.948;2023-03-12T15:09:29;7.45;;;4.95;;
26540;SDS011;14206;50.202;10.948;2023-03-12T15:14:47;5.53;;;4.53;;
26540;SDS011;14206;50.202;10.948;2023-03-12T15:17:18;6.03;;;4.32;;
26540;SDS011;14206;50.202;10.948;2023-03-12T15:19:47;7.00;;;4.80;;
26540;SDS011;14206;50.202;10.948;2023-03-12T15:22:18;5.25;;;4.63;;
26540;SDS011;14206;50.202;10.948;2023-03-12T15:24:48;5.55;;;4.85;;
26540;SDS011;14206;50.202;10.948;2023-03-12T15:27:19;5.53;;;4.90;;
26540;SDS011;14206;50.202;10.948;2023-03-12T15:29:50;5.05;;;4.43;;
26540;SDS011;14206;50.202;10.948;2023-03-12T15:32:18;5.90;;;4.53;;
26540;SDS011;14206;50.202;10.948;2023-03-12T15:34:46;5.13;;;4.63;;
26540;SDS011;14206;50.202;10.948;2023-03-12T15:37:24;6.22;;;4.90;;
26540;SDS011;14206;50.202;10.948;2023-03-12T15:39:57;4.93;;;4.43;;
26540;SDS011;14206;50.202;10.948;2023-03-12T15:42:27;5.95;;;4.40;;
26540;SDS011;14206;50.202;10.948;2023-03-12T15:44:58;4.80;;;4.20;;
26540;SDS011;14206;50.202;10.948;2023-03-12T15:47:29;5.32;;;4.55;;
26540;SDS011;14206;50.202;10.948;2023-03-12T15:49:59;4.60;;;3.80;;
26540;SDS011;14206;50.202;10.948;2023-03-12T15:52:32;5.22;;;4.35;;
26540;SDS011;14206;50.202;10.948;2023-03-12T15:55:01;4.32;;;3.85;;
26540;SDS011;14206;50.202;10.948;2023-03-12T15:57:46;5.32;;;4.28;;
26540;SDS011;14206;50.202;10.948;2023-03-12T16:03:00;5.50;;;4.40;;
26540;SDS011;14206;50.202;10.948;2023-03-12T16:05:35;4.90;;;4.15;;
26540;SDS011;14206;50.202;10.948;2023-03-12T16:08:14;6.05;;;4.75;;
26540;SDS011;14206;50.202;10.948;2023-03-12T16:10:51;6.63;;;5.57;;
26540;SDS011;14206;50.202;10.948;2023-03-12T16:13:18;5.53;;;4.72;;
26540;SDS011;14206;50.202;10.948;2023-03-12T16:15:47;6.70;;;5.55;;
26540;SDS011;14206;50.202;10.948;2023-03-12T16:18:15;5.65;;;5.05;;
26540;SDS011;14206;50.202;10.948;2023-03-12T16:20:44;6.13;;;5.45;;
26540;SDS011;14206;50.202;10.948;2023-03-12T16:23:12;5.78;;;5.13;;
26540;SDS011;14206;50.202;10.948;2023-03-12T16:25:47;6.57;;;5.18;;
26540;SDS011;14206;50.202;10.948;2023-03-12T16:28:16;5.30;;;4.50;;
26540;SDS011;14206;50.202;10.948;2023-03-12T16:30:45;4.88;;;4.30;;
26540;SDS011;14206;50.202;10.948;2023-03-12T16:33:13;4.88;;;4.35;;
26540;SDS011;14206;50.202;10.948;2023-03-12T16:35:41;5.55;;;4.82;;
26540;SDS011;14206;50.202;10.948;2023-03-12T16:38:08;7.75;;;6.00;;
26540;SDS011;14206;50.202;10.948;2023-03-12T16:40:39;6.18;;;5.57;;
26540;SDS011;14206;50.202;10.948;2023-03-12T16:43:17;8.07;;;6.10;;
26540;SDS011;14206;50.202;10.948;2023-03-12T16:45:46;7.40;;;6.43;;
26540;SDS011;14206;50.202;10.948;2023-03-12T16:48:18;7.57;;;5.93;;
26540;SDS011;14206;50.202;10.948;2023-03-12T16:50:50;8.25;;;5.80;;
26540;SDS011;14206;50.202;10.948;2023-03-12T16:53:19;7.00;;;5.72;;
26540;SDS011;14206;50.202;10.948;2023-03-12T16:55:50;7.50;;;5.20;;
26540;SDS011;14206;50.202;10.948;2023-03-12T16:58:19;5.47;;;4.82;;